sensor_id;sensor_type;location;lat;lon;timestamp;P1;durP1;ratioP1;P2;durP2;ratioP2
19312;SDS011;9791;50.820;4.406;2022-07-23T00:00:10;17.92;;;11.55;;
19312;SDS011;9791;50.820;4.406;2022-07-23T00:02:37;12.80;;;10.38;;
19312;SDS011;9791;50.820;4.406;2022-07-23T00:05:03;15.02;;;11.23;;
19312;SDS011;9791;50.820;4.406;2022-07-23T00:07:29;13.45;;;9.88;;
19312;SDS011;9791;50.820;4.406;2022-07-23T00:09:55;13.32;;;10.20;;
19312;SDS011;9791;50.820;4.406;2022-07-23T00:12:21;14.52;;;11.10;;
19312;SDS011;9791;50.820;4.406;2022-07-23T00:14:47;16.23;;;11.20;;
19312;SDS011;9791;50.820;4.406;2022-07-23T00:17:13;15.82;;;11.23;;
19312;SDS011;9791;50.820;4.406;2022-07-23T00:19:39;15.70;;;11.38;;
19312;SDS011;9791;50.820;4.406;2022-07-23T00:22:05;13.77;;;10.30;;
19312;SDS011;9791;50.820;4.406;2022-07-23T00:24:31;16.83;;;11.25;;
19312;SDS011;9791;50.820;4.406;2022-07-23T00:26:57;14.80;;;10.88;;
19312;SDS011;9791;50.820;4.406;2022-07-23T00:29:23;16.38;;;12.25;;
19312;SDS011;9791;50.820;4.406;2022-07-23T00:31:49;21.75;;;13.45;;
19312;SDS011;9791;50.820;4.406;2022-07-23T00:34:15;16.25;;;12.25;;
19312;SDS011;9791;50.820;4.406;2022-07-23T00:36:41;18.75;;;12.57;;
19312;SDS011;9791;50.820;4.406;2022-07-23T00:39:07;16.85;;;12.15;;
19312;SDS011;9791;50.820;4.406;2022-07-23T00:41:33;15.80;;;11.32;;
19312;SDS011;9791;50.820;4.406;2022-07-23T00:44:15;15.70;;;12.00;;
19312;SDS011;9791;50.820;4.406;2022-07-23T00:46:48;13.88;;;12.20;;
19312;SDS011;9791;50.820;4.406;2022-07-23T00:49:14;15.65;;;12.30;;
19312;SDS011;9791;50.820;4.406;2022-07-23T00:51:41;17.20;;;13.32;;
19312;SDS011;9791;50.820;4.406;2022-07-23T00:54:07;18.95;;;12.93;;
19312;SDS011;9791;50.820;4.406;2022-07-23T00:56:34;15.35;;;12.57;;
19312;SDS011;9791;50.820;4.406;2022-07-23T00:59:00;18.13;;;12.65;;
19312;SDS011;9791;50.820;4.406;2022-07-23T01:01:26;15.05;;;12.15;;
19312;SDS011;9791;50.820;4.406;2022-07-23T01:03:52;15.20;;;11.98;;
19312;SDS011;9791;50.820;4.406;2022-07-23T01:06:18;16.17;;;12.75;;
19312;SDS011;9791;50.820;4.406;2022-07-23T01:08:44;16.88;;;13.18;;
19312;SDS011;9791;50.820;4.406;2022-07-23T01:11:10;18.88;;;12.50;;
19312;SDS011;9791;50.820;4.406;2022-07-23T01:13:42;19.10;;;13.30;;
19312;SDS011;9791;50.820;4.406;2022-07-23T01:16:08;17.83;;;12.93;;
19312;SDS011;9791;50.820;4.406;2022-07-23T01:18:34;14.00;;;12.02;;
19312;SDS011;9791;50.820;4.406;2022-07-23T01:21:00;18.80;;;13.32;;
19312;SDS011;9791;50.820;4.406;2022-07-23T01:23:26;17.00;;;12.60;;
19312;SDS011;9791;50.820;4.406;2022-07-23T01:25:52;15.70;;;13.02;;
19312;SDS011;9791;50.820;4.406;2022-07-23T01:28:18;18.98;;;13.60;;
19312;SDS011;9791;50.820;4.406;2022-07-23T01:30:46;18.38;;;14.18;;
19312;SDS011;9791;50.820;4.406;2022-07-23T01:33:12;18.45;;;12.98;;
19312;SDS011;9791;50.820;4.406;2022-07-23T01:35:38;18.63;;;14.13;;
19312;SDS011;9791;50.820;4.406;2022-07-23T01:38:04;19.98;;;14.77;;
19312;SDS011;9791;50.820;4.406;2022-07-23T01:40:30;18.65;;;13.15;;
19312;SDS011;9791;50.820;4.406;2022-07-23T01:42:56;19.85;;;13.75;;
19312;SDS011;9791;50.820;4.406;2022-07-23T01:45:22;18.23;;;13.75;;
19312;SDS011;9791;50.820;4.406;2022-07-23T01:47:48;16.05;;;12.13;;
19312;SDS011;9791;50.820;4.406;2022-07-23T01:50:14;19.80;;;13.68;;
19312;SDS011;9791;50.820;4.406;2022-07-23T01:52:40;18.05;;;13.50;;
19312;SDS011;9791;50.820;4.406;2022-07-23T01:55:06;18.40;;;13.50;;
19312;SDS011;9791;50.820;4.406;2022-07-23T01:57:32;16.80;;;13.05;;
19312;SDS011;9791;50.820;4.406;2022-07-23T01:59:58;17.95;;;13.68;;
19312;SDS011;9791;50.820;4.406;2022-07-23T02:02:24;20.58;;;14.05;;
19312;SDS011;9791;50.820;4.406;2022-07-23T02:04:50;18.95;;;13.82;;
19312;SDS011;9791;50.820;4.406;2022-07-23T02:07:17;21.83;;;13.82;;
19312;SDS011;9791;50.820;4.406;2022-07-23T02:09:43;21.25;;;14.57;;
19312;SDS011;9791;50.820;4.406;2022-07-23T02:12:09;21.23;;;13.68;;
19312;SDS011;9791;50.820;4.406;2022-07-23T02:14:35;16.27;;;12.98;;
19312;SDS011;9791;50.820;4.406;2022-07-23T02:17:01;16.98;;;13.48;;
19312;SDS011;9791;50.820;4.406;2022-07-23T02:19:28;19.05;;;14.52;;
19312;SDS011;9791;50.820;4.406;2022-07-23T02:21:54;17.92;;;13.50;;
19312;SDS011;9791;50.820;4.406;2022-07-23T02:24:20;18.65;;;13.27;;
19312;SDS011;9791;50.820;4.406;2022-07-23T02:26:46;18.17;;;13.43;;
19312;SDS011;9791;50.820;4.406;2022-07-23T02:29:12;17.25;;;13.98;;
19312;SDS011;9791;50.820;4.406;2022-07-23T02:31:38;17.08;;;13.25;;
19312;SDS011;9791;50.820;4.406;2022-07-23T02:34:04;18.20;;;14.52;;
19312;SDS011;9791;50.820;4.406;2022-07-23T02:36:30;20.08;;;14.45;;
19312;SDS011;9791;50.820;4.406;2022-07-23T02:38:56;17.77;;;14.10;;
19312;SDS011;9791;50.820;4.406;2022-07-23T02:41:23;17.90;;;14.82;;
19312;SDS011;9791;50.820;4.406;2022-07-23T02:43:49;19.67;;;15.43;;
19312;SDS011;9791;50.820;4.406;2022-07-23T02:46:15;16.75;;;14.02;;
19312;SDS011;9791;50.820;4.406;2022-07-23T02:48:41;17.90;;;14.38;;
19312;SDS011;9791;50.820;4.406;2022-07-23T02:51:07;19.50;;;14.02;;
19312;SDS011;9791;50.820;4.406;2022-07-23T02:53:33;19.02;;;13.80;;
19312;SDS011;9791;50.820;4.406;2022-07-23T02:55:59;18.05;;;13.95;;
19312;SDS011;9791;50.820;4.406;2022-07-23T02:58:25;16.63;;;13.18;;
19312;SDS011;9791;50.820;4.406;2022-07-23T03:00:52;19.95;;;13.90;;
19312;SDS011;9791;50.820;4.406;2022-07-23T03:03:18;18.85;;;13.82;;
19312;SDS011;9791;50.820;4.406;2022-07-23T03:05:44;17.70;;;13.93;;
19312;SDS011;9791;50.820;4.406;2022-07-23T03:08:10;18.20;;;13.70;;
19312;SDS011;9791;50.820;4.406;2022-07-23T03:10:36;18.40;;;13.32;;
19312;SDS011;9791;50.820;4.406;2022-07-23T03:13:02;21.33;;;15.07;;
19312;SDS011;9791;50.820;4.406;2022-07-23T03:15:28;19.75;;;14.45;;
19312;SDS011;9791;50.820;4.406;2022-07-23T03:17:54;18.60;;;13.10;;
19312;SDS011;9791;50.820;4.406;2022-07-23T03:20:21;18.80;;;14.45;;
19312;SDS011;9791;50.820;4.406;2022-07-23T03:22:47;18.58;;;13.70;;
19312;SDS011;9791;50.820;4.406;2022-07-23T03:25:13;21.70;;;15.35;;
19312;SDS011;9791;50.820;4.406;2022-07-23T03:27:39;19.13;;;14.05;;
19312;SDS011;9791;50.820;4.406;2022-07-23T03:30:06;19.05;;;14.02;;
19312;SDS011;9791;50.820;4.406;2022-07-23T03:32:32;19.70;;;14.38;;
19312;SDS011;9791;50.820;4.406;2022-07-23T03:34:58;21.42;;;15.07;;
19312;SDS011;9791;50.820;4.406;2022-07-23T03:37:25;22.15;;;15.63;;
19312;SDS011;9791;50.820;4.406;2022-07-23T03:39:51;23.17;;;17.13;;
19312;SDS011;9791;50.820;4.406;2022-07-23T03:42:17;20.85;;;15.75;;
19312;SDS011;9791;50.820;4.406;2022-07-23T03:44:43;21.63;;;17.25;;
19312;SDS011;9791;50.820;4.406;2022-07-23T03:47:09;19.75;;;15.27;;
19312;SDS011;9791;50.820;4.406;2022-07-23T03:49:35;20.67;;;14.85;;
19312;SDS011;9791;50.820;4.406;2022-07-23T03:52:01;19.17;;;14.43;;
19312;SDS011;9791;50.820;4.406;2022-07-23T03:54:27;22.25;;;15.23;;
19312;SDS011;9791;50.820;4.406;2022-07-23T03:56:53;20.10;;;14.98;;
19312;SDS011;9791;50.820;4.406;2022-07-23T03:59:19;19.55;;;15.63;;
19312;SDS011;9791;50.820;4.406;2022-07-23T04:01:45;23.30;;;18.65;;
19312;SDS011;9791;50.820;4.406;2022-07-23T04:04:11;20.25;;;15.30;;
19312;SDS011;9791;50.820;4.406;2022-07-23T04:06:37;20.92;;;15.10;;
19312;SDS011;9791;50.820;4.406;2022-07-23T04:09:03;19.23;;;14.70;;
19312;SDS011;9791;50.820;4.406;2022-07-23T04:11:29;18.92;;;14.48;;
19312;SDS011;9791;50.820;4.406;2022-07-23T04:13:55;15.75;;;12.77;;
19312;SDS011;9791;50.820;4.406;2022-07-23T04:16:21;18.08;;;12.90;;
19312;SDS011;9791;50.820;4.406;2022-07-23T04:18:47;18.52;;;14.18;;
19312;SDS011;9791;50.820;4.406;2022-07-23T04:21:13;16.85;;;13.25;;
19312;SDS011;9791;50.820;4.406;2022-07-23T04:23:39;17.10;;;13.50;;
19312;SDS011;9791;50.820;4.406;2022-07-23T04:26:05;17.02;;;12.52;;
19312;SDS011;9791;50.820;4.406;2022-07-23T04:28:31;17.42;;;12.88;;
19312;SDS011;9791;50.820;4.406;2022-07-23T04:30:57;18.50;;;12.30;;
19312;SDS011;9791;50.820;4.406;2022-07-23T04:33:24;17.40;;;13.15;;
19312;SDS011;9791;50.820;4.406;2022-07-23T04:35:50;20.10;;;11.77;;
19312;SDS011;9791;50.820;4.406;2022-07-23T04:38:16;15.88;;;12.57;;
19312;SDS011;9791;50.820;4.406;2022-07-23T04:40:42;14.07;;;11.07;;
19312;SDS011;9791;50.820;4.406;2022-07-23T04:43:08;12.93;;;10.27;;
19312;SDS011;9791;50.820;4.406;2022-07-23T04:45:34;15.23;;;11.48;;
19312;SDS011;9791;50.820;4.406;2022-07-23T04:48:00;16.05;;;11.77;;
19312;SDS011;9791;50.820;4.406;2022-07-23T04:50:26;13.55;;;11.68;;
19312;SDS011;9791;50.820;4.406;2022-07-23T04:52:52;19.13;;;10.65;;
19312;SDS011;9791;50.820;4.406;2022-07-23T04:55:18;13.88;;;10.52;;
19312;SDS011;9791;50.820;4.406;2022-07-23T04:57:44;14.35;;;11.32;;
19312;SDS011;9791;50.820;4.406;2022-07-23T05:00:10;15.73;;;11.18;;
19312;SDS011;9791;50.820;4.406;2022-07-23T05:02:36;15.13;;;11.23;;
19312;SDS011;9791;50.820;4.406;2022-07-23T05:05:02;14.95;;;10.95;;
19312;SDS011;9791;50.820;4.406;2022-07-23T05:07:28;12.57;;;9.65;;
19312;SDS011;9791;50.820;4.406;2022-07-23T05:09:54;14.75;;;10.48;;
19312;SDS011;9791;50.820;4.406;2022-07-23T05:12:20;13.38;;;10.20;;
19312;SDS011;9791;50.820;4.406;2022-07-23T05:14:46;18.75;;;10.73;;
19312;SDS011;9791;50.820;4.406;2022-07-23T05:17:12;15.00;;;10.65;;
19312;SDS011;9791;50.820;4.406;2022-07-23T05:19:38;13.73;;;10.23;;
19312;SDS011;9791;50.820;4.406;2022-07-23T05:22:04;14.10;;;10.85;;
19312;SDS011;9791;50.820;4.406;2022-07-23T05:24:30;12.40;;;9.93;;
19312;SDS011;9791;50.820;4.406;2022-07-23T05:26:56;14.10;;;10.63;;
19312;SDS011;9791;50.820;4.406;2022-07-23T05:29:22;11.77;;;9.15;;
19312;SDS011;9791;50.820;4.406;2022-07-23T05:31:48;14.00;;;10.30;;
19312;SDS011;9791;50.820;4.406;2022-07-23T05:34:14;11.57;;;8.93;;
19312;SDS011;9791;50.820;4.406;2022-07-23T05:36:40;13.93;;;8.88;;
19312;SDS011;9791;50.820;4.406;2022-07-23T05:39:06;12.57;;;9.40;;
19312;SDS011;9791;50.820;4.406;2022-07-23T05:41:32;16.35;;;10.13;;
19312;SDS011;9791;50.820;4.406;2022-07-23T05:43:57;13.82;;;9.63;;
19312;SDS011;9791;50.820;4.406;2022-07-23T05:46:23;16.85;;;8.98;;
19312;SDS011;9791;50.820;4.406;2022-07-23T05:48:50;11.70;;;8.98;;
19312;SDS011;9791;50.820;4.406;2022-07-23T05:51:24;11.68;;;9.20;;
19312;SDS011;9791;50.820;4.406;2022-07-23T05:53:51;12.07;;;9.45;;
19312;SDS011;9791;50.820;4.406;2022-07-23T05:56:17;13.38;;;9.77;;
19312;SDS011;9791;50.820;4.406;2022-07-23T05:58:43;12.35;;;9.52;;
19312;SDS011;9791;50.820;4.406;2022-07-23T06:01:09;14.30;;;9.52;;
19312;SDS011;9791;50.820;4.406;2022-07-23T06:03:36;12.07;;;9.80;;
19312;SDS011;9791;50.820;4.406;2022-07-23T06:06:03;11.30;;;9.05;;
19312;SDS011;9791;50.820;4.406;2022-07-23T06:08:29;15.30;;;10.23;;
19312;SDS011;9791;50.820;4.406;2022-07-23T06:10:55;14.23;;;10.43;;
19312;SDS011;9791;50.820;4.406;2022-07-23T06:13:21;14.07;;;9.77;;
19312;SDS011;9791;50.820;4.406;2022-07-23T06:15:47;10.93;;;9.43;;
19312;SDS011;9791;50.820;4.406;2022-07-23T06:18:13;14.57;;;9.05;;
19312;SDS011;9791;50.820;4.406;2022-07-23T06:20:39;12.07;;;9.90;;
19312;SDS011;9791;50.820;4.406;2022-07-23T06:23:05;13.43;;;9.27;;
19312;SDS011;9791;50.820;4.406;2022-07-23T06:25:31;15.68;;;8.23;;
19312;SDS011;9791;50.820;4.406;2022-07-23T06:27:57;10.95;;;7.65;;
19312;SDS011;9791;50.820;4.406;2022-07-23T06:30:25;13.48;;;8.15;;
19312;SDS011;9791;50.820;4.406;2022-07-23T06:32:51;12.10;;;7.93;;
19312;SDS011;9791;50.820;4.406;2022-07-23T06:35:17;10.32;;;6.90;;
19312;SDS011;9791;50.820;4.406;2022-07-23T06:37:43;10.45;;;7.55;;
19312;SDS011;9791;50.820;4.406;2022-07-23T06:40:10;7.57;;;6.20;;
19312;SDS011;9791;50.820;4.406;2022-07-23T06:42:36;11.10;;;7.22;;
19312;SDS011;9791;50.820;4.406;2022-07-23T06:45:04;9.45;;;6.97;;
19312;SDS011;9791;50.820;4.406;2022-07-23T06:47:30;9.38;;;6.00;;
19312;SDS011;9791;50.820;4.406;2022-07-23T06:49:56;8.02;;;5.65;;
19312;SDS011;9791;50.820;4.406;2022-07-23T06:52:22;8.70;;;5.95;;
19312;SDS011;9791;50.820;4.406;2022-07-23T06:54:48;10.38;;;6.80;;
19312;SDS011;9791;50.820;4.406;2022-07-23T06:57:14;10.23;;;6.30;;
19312;SDS011;9791;50.820;4.406;2022-07-23T06:59:40;9.60;;;6.38;;
19312;SDS011;9791;50.820;4.406;2022-07-23T07:02:07;9.95;;;6.53;;
19312;SDS011;9791;50.820;4.406;2022-07-23T07:04:33;9.63;;;6.07;;
19312;SDS011;9791;50.820;4.406;2022-07-23T07:07:00;12.35;;;7.18;;
19312;SDS011;9791;50.820;4.406;2022-07-23T07:09:26;7.95;;;5.07;;
19312;SDS011;9791;50.820;4.406;2022-07-23T07:11:52;9.73;;;6.43;;
19312;SDS011;9791;50.820;4.406;2022-07-23T07:14:18;9.65;;;4.80;;
19312;SDS011;9791;50.820;4.406;2022-07-23T07:16:44;9.23;;;6.35;;
19312;SDS011;9791;50.820;4.406;2022-07-23T07:19:10;7.70;;;5.00;;
19312;SDS011;9791;50.820;4.406;2022-07-23T07:21:36;10.13;;;6.55;;
19312;SDS011;9791;50.820;4.406;2022-07-23T07:24:02;9.70;;;5.90;;
19312;SDS011;9791;50.820;4.406;2022-07-23T07:26:28;9.60;;;5.18;;
19312;SDS011;9791;50.820;4.406;2022-07-23T07:28:55;6.43;;;3.90;;
19312;SDS011;9791;50.820;4.406;2022-07-23T07:31:21;6.15;;;4.38;;
19312;SDS011;9791;50.820;4.406;2022-07-23T07:33:47;6.15;;;3.95;;
19312;SDS011;9791;50.820;4.406;2022-07-23T07:36:13;6.35;;;4.40;;
19312;SDS011;9791;50.820;4.406;2022-07-23T07:38:40;8.38;;;5.50;;
19312;SDS011;9791;50.820;4.406;2022-07-23T07:41:06;11.48;;;4.35;;
19312;SDS011;9791;50.820;4.406;2022-07-23T07:43:32;9.55;;;5.55;;
19312;SDS011;9791;50.820;4.406;2022-07-23T07:45:58;7.50;;;5.03;;
19312;SDS011;9791;50.820;4.406;2022-07-23T07:48:24;8.52;;;5.55;;
19312;SDS011;9791;50.820;4.406;2022-07-23T07:50:51;8.82;;;5.10;;
19312;SDS011;9791;50.820;4.406;2022-07-23T07:53:17;10.30;;;5.65;;
19312;SDS011;9791;50.820;4.406;2022-07-23T07:55:43;8.45;;;5.45;;
19312;SDS011;9791;50.820;4.406;2022-07-23T07:58:09;6.55;;;4.30;;
19312;SDS011;9791;50.820;4.406;2022-07-23T08:00:35;8.30;;;4.80;;
19312;SDS011;9791;50.820;4.406;2022-07-23T08:03:01;6.43;;;4.22;;
19312;SDS011;9791;50.820;4.406;2022-07-23T08:05:28;10.63;;;4.10;;
19312;SDS011;9791;50.820;4.406;2022-07-23T08:07:57;8.25;;;4.18;;
19312;SDS011;9791;50.820;4.406;2022-07-23T08:10:24;6.63;;;3.47;;
19312;SDS011;9791;50.820;4.406;2022-07-23T08:12:51;9.95;;;5.25;;
19312;SDS011;9791;50.820;4.406;2022-07-23T08:15:21;6.90;;;4.13;;
19312;SDS011;9791;50.820;4.406;2022-07-23T08:17:48;8.70;;;4.40;;
19312;SDS011;9791;50.820;4.406;2022-07-23T08:20:15;8.07;;;3.78;;
19312;SDS011;9791;50.820;4.406;2022-07-23T08:22:50;6.97;;;3.47;;
19312;SDS011;9791;50.820;4.406;2022-07-23T08:25:26;6.50;;;3.67;;
19312;SDS011;9791;50.820;4.406;2022-07-23T08:27:53;9.65;;;4.57;;
19312;SDS011;9791;50.820;4.406;2022-07-23T08:30:19;6.78;;;3.90;;
19312;SDS011;9791;50.820;4.406;2022-07-23T08:32:55;10.25;;;4.68;;
19312;SDS011;9791;50.820;4.406;2022-07-23T08:35:32;7.38;;;4.50;;
19312;SDS011;9791;50.820;4.406;2022-07-23T08:37:59;8.60;;;4.05;;
19312;SDS011;9791;50.820;4.406;2022-07-23T08:40:26;6.60;;;3.83;;
19312;SDS011;9791;50.820;4.406;2022-07-23T08:42:52;6.93;;;3.70;;
19312;SDS011;9791;50.820;4.406;2022-07-23T08:45:19;9.32;;;5.45;;
19312;SDS011;9791;50.820;4.406;2022-07-23T08:47:50;7.28;;;4.00;;
19312;SDS011;9791;50.820;4.406;2022-07-23T08:50:16;6.40;;;3.58;;
19312;SDS011;9791;50.820;4.406;2022-07-23T08:52:42;6.80;;;3.50;;
19312;SDS011;9791;50.820;4.406;2022-07-23T08:55:08;7.15;;;3.50;;
19312;SDS011;9791;50.820;4.406;2022-07-23T08:57:34;11.23;;;3.60;;
19312;SDS011;9791;50.820;4.406;2022-07-23T09:00:00;7.20;;;3.08;;
19312;SDS011;9791;50.820;4.406;2022-07-23T09:02:27;5.40;;;3.00;;
19312;SDS011;9791;50.820;4.406;2022-07-23T09:04:53;6.72;;;3.70;;
19312;SDS011;9791;50.820;4.406;2022-07-23T09:07:19;6.65;;;4.18;;
19312;SDS011;9791;50.820;4.406;2022-07-23T09:09:45;10.45;;;4.95;;
19312;SDS011;9791;50.820;4.406;2022-07-23T09:12:11;8.45;;;3.50;;
19312;SDS011;9791;50.820;4.406;2022-07-23T09:17:14;6.80;;;3.65;;
19312;SDS011;9791;50.820;4.406;2022-07-23T09:19:40;7.60;;;3.65;;
19312;SDS011;9791;50.820;4.406;2022-07-23T09:22:19;5.68;;;3.60;;
19312;SDS011;9791;50.820;4.406;2022-07-23T09:30:11;4.95;;;2.58;;
19312;SDS011;9791;50.820;4.406;2022-07-23T09:32:38;6.50;;;3.38;;
19312;SDS011;9791;50.820;4.406;2022-07-23T09:35:04;6.50;;;2.88;;
19312;SDS011;9791;50.820;4.406;2022-07-23T09:37:30;5.72;;;2.63;;
19312;SDS011;9791;50.820;4.406;2022-07-23T09:40:03;4.43;;;2.22;;
19312;SDS011;9791;50.820;4.406;2022-07-23T09:42:30;5.80;;;2.83;;
19312;SDS011;9791;50.820;4.406;2022-07-23T09:44:56;7.22;;;3.00;;
19312;SDS011;9791;50.820;4.406;2022-07-23T09:47:23;5.88;;;2.55;;
19312;SDS011;9791;50.820;4.406;2022-07-23T09:52:34;5.55;;;3.25;;
19312;SDS011;9791;50.820;4.406;2022-07-23T09:55:00;4.32;;;2.63;;
19312;SDS011;9791;50.820;4.406;2022-07-23T09:57:27;5.30;;;2.25;;
19312;SDS011;9791;50.820;4.406;2022-07-23T09:59:53;6.20;;;2.97;;
19312;SDS011;9791;50.820;4.406;2022-07-23T10:02:22;4.88;;;2.20;;
19312;SDS011;9791;50.820;4.406;2022-07-23T10:04:48;6.88;;;3.38;;
19312;SDS011;9791;50.820;4.406;2022-07-23T10:07:14;5.68;;;2.20;;
19312;SDS011;9791;50.820;4.406;2022-07-23T10:09:42;5.45;;;2.05;;
19312;SDS011;9791;50.820;4.406;2022-07-23T10:12:13;5.43;;;2.22;;
19312;SDS011;9791;50.820;4.406;2022-07-23T10:14:53;5.45;;;2.33;;
19312;SDS011;9791;50.820;4.406;2022-07-23T10:17:20;4.60;;;2.50;;
19312;SDS011;9791;50.820;4.406;2022-07-23T10:19:46;5.55;;;2.63;;
19312;SDS011;9791;50.820;4.406;2022-07-23T10:22:31;5.22;;;3.15;;
19312;SDS011;9791;50.820;4.406;2022-07-23T10:24:59;4.10;;;2.08;;
19312;SDS011;9791;50.820;4.406;2022-07-23T10:30:24;4.07;;;2.00;;
19312;SDS011;9791;50.820;4.406;2022-07-23T10:37:50;3.78;;;2.10;;
19312;SDS011;9791;50.820;4.406;2022-07-23T10:40:17;4.22;;;2.30;;
19312;SDS011;9791;50.820;4.406;2022-07-23T10:42:45;4.13;;;1.92;;
19312;SDS011;9791;50.820;4.406;2022-07-23T10:45:21;5.05;;;1.60;;
19312;SDS011;9791;50.820;4.406;2022-07-23T10:47:48;4.72;;;1.80;;
19312;SDS011;9791;50.820;4.406;2022-07-23T10:58:00;4.45;;;1.95;;
19312;SDS011;9791;50.820;4.406;2022-07-23T11:00:28;4.78;;;2.00;;
19312;SDS011;9791;50.820;4.406;2022-07-23T11:02:55;5.65;;;1.95;;
19312;SDS011;9791;50.820;4.406;2022-07-23T11:05:22;3.55;;;1.52;;
19312;SDS011;9791;50.820;4.406;2022-07-23T11:10:39;5.43;;;1.80;;
19312;SDS011;9791;50.820;4.406;2022-07-23T11:32:00;4.97;;;2.10;;
19312;SDS011;9791;50.820;4.406;2022-07-23T11:36:57;4.05;;;2.13;;
19312;SDS011;9791;50.820;4.406;2022-07-23T11:39:24;4.85;;;2.20;;
19312;SDS011;9791;50.820;4.406;2022-07-23T11:41:51;6.00;;;2.20;;
19312;SDS011;9791;50.820;4.406;2022-07-23T11:44:24;5.90;;;2.60;;
19312;SDS011;9791;50.820;4.406;2022-07-23T11:47:00;5.18;;;2.13;;
19312;SDS011;9791;50.820;4.406;2022-07-23T11:49:26;4.70;;;2.35;;
19312;SDS011;9791;50.820;4.406;2022-07-23T11:54:49;4.32;;;2.13;;
19312;SDS011;9791;50.820;4.406;2022-07-23T11:57:16;5.72;;;2.38;;
19312;SDS011;9791;50.820;4.406;2022-07-23T11:59:42;4.53;;;2.00;;
19312;SDS011;9791;50.820;4.406;2022-07-23T12:02:09;6.07;;;2.67;;
19312;SDS011;9791;50.820;4.406;2022-07-23T12:04:41;5.10;;;1.90;;
19312;SDS011;9791;50.820;4.406;2022-07-23T12:07:24;5.22;;;2.20;;
19312;SDS011;9791;50.820;4.406;2022-07-23T12:09:50;4.32;;;2.42;;
19312;SDS011;9791;50.820;4.406;2022-07-23T12:12:16;5.50;;;2.55;;
19312;SDS011;9791;50.820;4.406;2022-07-23T12:17:14;7.00;;;4.13;;
19312;SDS011;9791;50.820;4.406;2022-07-23T12:19:40;4.40;;;2.50;;
19312;SDS011;9791;50.820;4.406;2022-07-23T12:22:06;8.38;;;2.92;;
19312;SDS011;9791;50.820;4.406;2022-07-23T12:24:51;6.63;;;3.05;;
19312;SDS011;9791;50.820;4.406;2022-07-23T12:27:20;8.13;;;3.95;;
19312;SDS011;9791;50.820;4.406;2022-07-23T12:29:46;8.82;;;3.45;;
19312;SDS011;9791;50.820;4.406;2022-07-23T12:35:00;10.60;;;4.30;;
19312;SDS011;9791;50.820;4.406;2022-07-23T12:37:31;11.02;;;5.03;;
19312;SDS011;9791;50.820;4.406;2022-07-23T12:39:58;7.45;;;3.75;;
19312;SDS011;9791;50.820;4.406;2022-07-23T12:42:24;7.05;;;3.10;;
19312;SDS011;9791;50.820;4.406;2022-07-23T12:45:03;9.15;;;4.47;;
19312;SDS011;9791;50.820;4.406;2022-07-23T12:47:29;7.70;;;3.58;;
19312;SDS011;9791;50.820;4.406;2022-07-23T12:49:55;4.90;;;3.30;;
19312;SDS011;9791;50.820;4.406;2022-07-23T12:52:21;7.47;;;3.47;;
19312;SDS011;9791;50.820;4.406;2022-07-23T12:54:47;6.75;;;4.43;;
19312;SDS011;9791;50.820;4.406;2022-07-23T12:57:13;7.45;;;3.90;;
19312;SDS011;9791;50.820;4.406;2022-07-23T12:59:39;8.10;;;3.97;;
19312;SDS011;9791;50.820;4.406;2022-07-23T13:02:07;7.15;;;3.60;;
19312;SDS011;9791;50.820;4.406;2022-07-23T13:04:34;6.28;;;3.50;;
19312;SDS011;9791;50.820;4.406;2022-07-23T13:07:00;6.95;;;3.65;;
19312;SDS011;9791;50.820;4.406;2022-07-23T13:09:30;8.38;;;5.70;;
19312;SDS011;9791;50.820;4.406;2022-07-23T13:11:56;6.07;;;4.03;;
19312;SDS011;9791;50.820;4.406;2022-07-23T13:14:24;7.97;;;4.25;;
19312;SDS011;9791;50.820;4.406;2022-07-23T13:16:51;8.20;;;4.03;;
19312;SDS011;9791;50.820;4.406;2022-07-23T13:19:17;7.88;;;3.88;;
19312;SDS011;9791;50.820;4.406;2022-07-23T13:21:44;8.05;;;4.72;;
19312;SDS011;9791;50.820;4.406;2022-07-23T13:24:10;6.78;;;3.95;;
19312;SDS011;9791;50.820;4.406;2022-07-23T13:26:37;8.30;;;4.25;;
19312;SDS011;9791;50.820;4.406;2022-07-23T13:29:03;6.53;;;3.40;;
19312;SDS011;9791;50.820;4.406;2022-07-23T13:31:29;6.95;;;3.88;;
19312;SDS011;9791;50.820;4.406;2022-07-23T13:33:55;6.32;;;3.42;;
19312;SDS011;9791;50.820;4.406;2022-07-23T13:36:21;6.53;;;2.80;;
19312;SDS011;9791;50.820;4.406;2022-07-23T13:38:47;5.10;;;2.70;;
19312;SDS011;9791;50.820;4.406;2022-07-23T13:41:13;4.90;;;2.80;;
19312;SDS011;9791;50.820;4.406;2022-07-23T13:43:41;6.60;;;2.90;;
19312;SDS011;9791;50.820;4.406;2022-07-23T13:46:07;8.55;;;3.55;;
19312;SDS011;9791;50.820;4.406;2022-07-23T13:48:33;4.80;;;2.55;;
19312;SDS011;9791;50.820;4.406;2022-07-23T13:51:00;6.88;;;2.78;;
19312;SDS011;9791;50.820;4.406;2022-07-23T13:53:26;5.15;;;2.85;;
19312;SDS011;9791;50.820;4.406;2022-07-23T13:55:54;5.38;;;2.95;;
19312;SDS011;9791;50.820;4.406;2022-07-23T13:58:21;5.82;;;2.70;;
19312;SDS011;9791;50.820;4.406;2022-07-23T14:00:48;6.07;;;3.03;;
19312;SDS011;9791;50.820;4.406;2022-07-23T14:03:15;6.10;;;2.80;;
19312;SDS011;9791;50.820;4.406;2022-07-23T14:05:41;7.68;;;3.08;;
19312;SDS011;9791;50.820;4.406;2022-07-23T14:08:08;5.90;;;3.15;;
19312;SDS011;9791;50.820;4.406;2022-07-23T14:10:34;7.07;;;3.00;;
19312;SDS011;9791;50.820;4.406;2022-07-23T14:13:00;7.47;;;2.80;;
19312;SDS011;9791;50.820;4.406;2022-07-23T14:15:27;5.35;;;2.72;;
19312;SDS011;9791;50.820;4.406;2022-07-23T14:17:53;4.97;;;2.72;;
19312;SDS011;9791;50.820;4.406;2022-07-23T14:20:20;4.82;;;2.70;;
19312;SDS011;9791;50.820;4.406;2022-07-23T14:22:46;5.90;;;3.38;;
19312;SDS011;9791;50.820;4.406;2022-07-23T14:25:12;6.72;;;2.65;;
19312;SDS011;9791;50.820;4.406;2022-07-23T14:27:38;5.93;;;3.00;;
19312;SDS011;9791;50.820;4.406;2022-07-23T14:30:05;5.30;;;2.80;;
19312;SDS011;9791;50.820;4.406;2022-07-23T14:32:31;6.35;;;3.20;;
19312;SDS011;9791;50.820;4.406;2022-07-23T14:34:58;5.22;;;3.03;;
19312;SDS011;9791;50.820;4.406;2022-07-23T14:37:24;6.65;;;3.30;;
19312;SDS011;9791;50.820;4.406;2022-07-23T14:39:50;5.30;;;3.20;;
19312;SDS011;9791;50.820;4.406;2022-07-23T14:42:17;7.32;;;2.75;;
19312;SDS011;9791;50.820;4.406;2022-07-23T14:44:43;7.90;;;3.05;;
19312;SDS011;9791;50.820;4.406;2022-07-23T14:47:09;5.30;;;2.58;;
19312;SDS011;9791;50.820;4.406;2022-07-23T14:49:35;5.80;;;3.20;;
19312;SDS011;9791;50.820;4.406;2022-07-23T14:52:01;4.85;;;2.85;;
19312;SDS011;9791;50.820;4.406;2022-07-23T14:54:28;5.07;;;2.67;;
19312;SDS011;9791;50.820;4.406;2022-07-23T14:56:55;8.98;;;3.60;;
19312;SDS011;9791;50.820;4.406;2022-07-23T14:59:21;5.85;;;3.17;;
19312;SDS011;9791;50.820;4.406;2022-07-23T15:01:47;5.53;;;3.00;;
19312;SDS011;9791;50.820;4.406;2022-07-23T15:04:14;5.00;;;2.95;;
19312;SDS011;9791;50.820;4.406;2022-07-23T15:06:41;10.25;;;3.15;;
19312;SDS011;9791;50.820;4.406;2022-07-23T15:09:07;6.20;;;3.08;;
19312;SDS011;9791;50.820;4.406;2022-07-23T15:11:33;5.13;;;3.38;;
19312;SDS011;9791;50.820;4.406;2022-07-23T15:14:03;4.85;;;2.83;;
19312;SDS011;9791;50.820;4.406;2022-07-23T15:16:30;7.00;;;2.95;;
19312;SDS011;9791;50.820;4.406;2022-07-23T15:18:56;4.93;;;2.70;;
19312;SDS011;9791;50.820;4.406;2022-07-23T15:21:22;8.93;;;2.75;;
19312;SDS011;9791;50.820;4.406;2022-07-23T15:23:48;7.20;;;3.22;;
19312;SDS011;9791;50.820;4.406;2022-07-23T15:26:14;6.07;;;3.17;;
19312;SDS011;9791;50.820;4.406;2022-07-23T15:28:40;5.50;;;3.20;;
19312;SDS011;9791;50.820;4.406;2022-07-23T15:31:07;5.47;;;3.20;;
19312;SDS011;9791;50.820;4.406;2022-07-23T15:33:33;6.35;;;3.65;;
19312;SDS011;9791;50.820;4.406;2022-07-23T15:36:00;4.70;;;2.92;;
19312;SDS011;9791;50.820;4.406;2022-07-23T15:38:26;5.13;;;3.22;;
19312;SDS011;9791;50.820;4.406;2022-07-23T15:40:56;7.03;;;3.33;;
19312;SDS011;9791;50.820;4.406;2022-07-23T15:43:22;5.97;;;3.47;;
19312;SDS011;9791;50.820;4.406;2022-07-23T15:45:49;5.38;;;3.25;;